X  Sluiten METAR luchtvaart weer gegevens      EHRD Rotterdam The Hague Airport
Temperatuur
10°C Temperatuur
9°C Dauwpunt
94% Vochtigheid



Wind
16 KM/U
10 MPH
4 M/S
9 KTS



180°
Zuid
Huidig weer

Nevel Nevel
Luchtdruk 1015.92 (hPa) - 30 (inHg)
Zicht 3.1 (mijl) - 5 (km)
Vliegveld
Vliegveld code EHRD

Locatie : Rotterdam The Hague Airport
Afstand: 14 (km)

Metar:
EHRD 250425Z AUTO 18009KT 5000 BR SCT007 OVC008 10/09 Q1016 REDZ TEMPO 4000

Tijd: 25-10-2021 06:25 CEST